Startpagina
METAR-TAF:

METAR-TAF

Vliegvelden :

Nörvenich, Duitsland

breedte: 50-50N, lengte: 006-40E, hoogte: 118 m

Actueel weer

Dit bericht is 21 minuten geleden gemaakt, om 22:20 UTC
Wind 6 kt uit het zuidzuidoosten
Temperatuur 5°C
Vochtigheid 75%
Druk 1028 hPa
Zicht 10 km of meer

METAR: ETNN 162220Z AUTO 16006KT 9999 // ////// 05/01 Q1028 ///

Tijdstip: 23:41 (22:41 UTC)

Verwachting

Dit bericht is 11 uur en het 35 minuten geleden gemaakt, om 11:06 UTC
Verwachting geldig van 16 om 12 UTC tot 16 om 21 UTC
Wind 9 kt uit het zuidoosten
Zicht 10 km of meer
Weinig wolken op 24000 ft

TAF: ETNN 161106Z 1612/1621 13009KT 9999 NSW FEW240 CANCEL BY ETGL

Waarnemingen en weersverwachtingen van meer dan 4000 vliegvelden (METAR en TAF).

De beschikbare stations zijn de gele en rode punten op de kaart.

Ga met uw muis naar het station om de naam te zien.

Klik dan om waarnemingen en weersverwachtingen te zien.

kaart wijzigen: klik op de groene knoppen met een zwart kruis om in te zoomen, op de groene knop met een streepje om uit te zoomen of op de groene pijlen voor aangrenzende kaarten.


METAR-TAF: